Time;durP1;ratioP1;P1;durP2;ratioP2;P2;SDS_P1;SDS_P2;PMS_P1;PMS_P2;Temp;Humidity;BMP_temperature;BMP_pressure;BME280_temperature;BME280_humidity;BME280_pressure;Samples;Min_cycle;Max_cycle;Signal;HPM_P1;HPM_P2
2024/01/18 00:01:51;;;;;;;2.40;2.00;;;;;;;7.54;88.16;93774.60;108881;1259;22533;-84
2024/01/18 00:04:17;;;;;;;3.80;2.50;;;;;;;7.55;88.07;93799.86;108726;1278;138789;-83
2024/01/18 00:06:44;;;;;;;3.20;2.10;;;;;;;7.58;87.67;93791.49;108875;1275;22537;-84
2024/01/18 00:09:11;;;;;;;3.30;2.50;;;;;;;7.59;87.65;93804.67;108783;1272;22553;-84
2024/01/18 00:11:37;;;;;;;3.30;2.00;;;;;;;7.64;87.53;93813.06;108575;1278;137537;-84
2024/01/18 00:14:04;;;;;;;2.70;1.80;;;;;;;7.68;87.68;93827.95;108654;1274;22524;-83
2024/01/18 00:16:33;;;;;;;3.80;2.80;;;;;;;7.67;87.11;93849.52;108669;1272;138032;-84
2024/01/18 00:18:59;;;;;;;3.50;2.40;;;;;;;7.66;86.85;93844.95;108693;1272;25220;-85
2024/01/18 00:21:26;;;;;;;2.90;2.20;;;;;;;7.61;86.88;93843.28;108678;1278;22541;-85
2024/01/18 00:23:54;;;;;;;3.30;2.40;;;;;;;7.53;87.08;93857.06;108649;1272;137067;-85
2024/01/18 00:26:20;;;;;;;3.90;2.30;;;;;;;7.43;87.42;93849.34;108763;1272;22557;-85
2024/01/18 00:28:47;;;;;;;3.60;2.60;;;;;;;7.41;87.81;93850.38;108656;1278;137599;-86
2024/01/18 00:31:13;;;;;;;3.30;2.30;;;;;;;7.41;88.12;93846.65;108777;1259;22542;-84
2024/01/18 00:33:40;;;;;;;3.50;2.30;;;;;;;7.41;87.91;93868.83;108788;1272;22569;-85
2024/01/18 00:36:06;;;;;;;3.00;2.30;;;;;;;7.45;88.30;93878.21;108629;1278;137561;-85
2024/01/18 00:38:33;;;;;;;3.30;2.40;;;;;;;7.44;88.39;93861.55;108688;1278;22556;-85
2024/01/18 00:41:00;;;;;;;4.30;2.80;;;;;;;7.41;88.39;93867.43;108576;1278;138767;-85
2024/01/18 00:43:27;;;;;;;3.30;2.40;;;;;;;7.35;88.38;93868.22;108887;1278;23267;-85
2024/01/18 00:45:53;;;;;;;3.20;2.60;;;;;;;7.29;88.57;93878.09;108630;1278;22565;-85
2024/01/18 00:48:20;;;;;;;3.40;2.70;;;;;;;7.27;88.85;93869.20;108650;1278;137926;-85
2024/01/18 00:50:46;;;;;;;2.90;2.50;;;;;;;7.24;88.72;93888.00;108764;1273;22524;-85
2024/01/18 00:53:13;;;;;;;3.00;2.30;;;;;;;7.19;89.22;93889.39;108636;1273;138256;-85
2024/01/18 00:55:40;;;;;;;3.30;2.40;;;;;;;7.18;89.41;93879.91;108907;1278;24225;-84
2024/01/18 00:58:06;;;;;;;4.10;2.30;;;;;;;7.15;89.50;93880.45;108770;1263;22518;-85
2024/01/18 01:00:33;;;;;;;3.20;2.40;;;;;;;7.12;89.99;93863.77;108664;1260;137402;-84
2024/01/18 01:02:59;;;;;;;3.30;2.60;;;;;;;7.12;90.05;93880.48;108846;1259;22535;-84
2024/01/18 01:05:26;;;;;;;3.10;2.40;;;;;;;7.13;90.29;93898.00;108656;1278;138224;-84
2024/01/18 01:38:53;;;;;;;;;;;;;;;;;;;;;
2024/01/18 01:42:24;;;;;;;;;;;;;;;;;;;;;
2024/01/18 01:46:12;;;;;;;;;;;;;;;;;;;;;
2024/01/18 01:49:55;;;;;;;;;;;;;;;;;;;;;
2024/01/18 01:53:33;;;;;;;2.90;2.40;;;;;;;7.87;92.28;93898.09;107797;1287;22324;-86
2024/01/18 01:57:00;;;;;;;3.20;2.30;;;;;;;7.86;93.41;93871.02;108448;1290;22383;-86
2024/01/18 02:00:31;;;;;;;2.70;1.90;;;;;;;8.03;93.34;93877.86;108567;1292;23042;-86
2024/01/18 02:04:11;;;;;;;;;;;;;;;;;;;;;
2024/01/18 02:07:36;;;;;;;2.50;1.80;;;;;;;8.01;92.75;93865.10;108477;1295;137164;-87
2024/01/18 02:10:55;;;;;;;3.20;2.10;;;;;;;8.08;93.60;93858.60;109187;1281;23428;-86
2024/01/18 02:14:33;;;;;;;;;;;;;;;;;;;;;
2024/01/18 02:18:05;;;;;;;1.80;1.40;;;;;;;8.26;93.47;93851.94;108319;1274;27564;-86
2024/01/18 02:21:45;;;;;;;2.00;1.60;;;;;;;8.28;93.03;93853.84;108210;1271;22580;-85
2024/01/18 02:25:27;;;;;;;2.10;1.80;;;;;;;8.30;93.03;93844.46;108051;1286;136730;-86
2024/01/18 02:29:12;;;;;;;2.30;1.80;;;;;;;8.16;93.62;93850.82;108160;1278;22539;-87
2024/01/18 02:32:40;;;;;;;2.40;2.00;;;;;;;8.03;94.00;93848.48;107640;1286;137425;-87
2024/01/18 02:36:18;;;;;;;;;;;;;;;;;;;;;
2024/01/18 02:39:44;;;;;;;3.60;2.10;;;;;;;7.93;95.32;93827.36;107528;1286;24276;-89
2024/01/18 02:43:10;;;;;;;2.70;1.70;;;;;;;7.99;96.22;93830.64;107943;1280;136070;-87
2024/01/18 02:46:54;;;;;;;;;;;;;;;;;;;;;
2024/01/18 02:50:44;;;;;;;3.00;1.60;;;;;;;8.44;95.11;93823.91;107901;1280;137394;-87
2024/01/18 02:54:19;;;;;;;1.70;1.30;;;;;;;8.32;95.56;93817.20;107813;1280;23247;-86
2024/01/18 02:57:56;;;;;;;;;;;;;;;;;;;;;
2024/01/18 03:01:34;;;;;;;1.40;1.10;;;;;;;8.27;96.49;93813.98;107920;1280;137412;-87
2024/01/18 03:05:02;;;;;;;1.90;1.30;;;;;;;8.42;96.37;93811.60;107744;1287;22544;-87
2024/01/18 03:08:30;;;;;;;2.40;1.80;;;;;;;8.42;95.73;93795.56;107867;1280;137471;-86
2024/01/18 03:11:57;;;;;;;1.70;1.20;;;;;;;8.33;95.79;93803.10;107906;1280;22533;-88
2024/01/18 03:15:24;;;;;;;1.60;1.40;;;;;;;8.28;96.45;93800.39;107967;1281;23471;-87
2024/01/18 03:22:34;;;;;;;2.20;1.50;;;;;;;8.20;97.11;93794.66;107813;1286;22537;-86
2024/01/18 03:26:02;;;;;;;2.30;1.70;;;;;;;8.17;97.14;93790.98;107666;1293;137005;-86
2024/01/18 03:29:31;;;;;;;2.80;2.00;;;;;;;8.09;97.05;93798.46;107597;1286;22662;-87
2024/01/18 03:33:00;;;;;;;1.90;1.70;;;;;;;8.02;97.58;93799.17;107432;1294;137760;-87
2024/01/18 03:36:38;;;;;;;;;;;;;;;;;;;;;
2024/01/18 03:39:43;;;;;;;;;;;;;;;7.97;98.45;93808.88;107965;1281;22564;-87
2024/01/18 03:43:23;;;;;;;1.70;1.50;;;;;;;7.92;98.95;93808.33;108014;1281;123891;-86
2024/01/18 03:46:57;;;;;;;1.90;1.70;;;;;;;7.92;99.56;93803.96;107786;1281;22539;-87
2024/01/18 03:50:25;;;;;;;2.20;1.80;;;;;;;7.91;99.78;93807.36;107727;1287;136990;-86
2024/01/18 03:53:53;;;;;;;2.50;1.50;;;;;;;7.91;99.97;93806.08;108011;1288;22548;-86
2024/01/18 03:57:13;;;;;;;2.50;2.00;;;;;;;7.95;99.95;93805.58;107831;1287;137497;-86
2024/01/18 04:00:51;;;;;;;;;;;;;;;;;;;;;
2024/01/18 04:04:17;;;;;;;2.10;1.90;;;;;;;7.93;100.00;93810.66;107984;1280;22569;-86
2024/01/18 04:07:53;;;;;;;2.20;1.70;;;;;;;8.03;100.00;93798.27;107852;1283;137988;-86
2024/01/18 04:11:31;;;;;;;1.60;1.30;;;;;;;8.19;99.90;93810.33;108010;1281;22540;-86
2024/01/18 04:14:58;;;;;;;4.00;2.70;;;;;;;8.35;99.35;93811.39;107797;1284;137740;-86
2024/01/18 04:18:37;;;;;;;;;;;;;;;;;;;;;
2024/01/18 04:22:04;;;;;;;2.80;2.00;;;;;;;8.31;98.60;93823.39;108156;1288;22684;-86
2024/01/18 04:25:24;;;;;;;13.60;7.40;;;;;;;8.32;99.00;93828.23;107871;1288;137873;-87
2024/01/18 04:28:54;;;;;;;9.60;4.40;;;;;;;8.32;98.71;93836.71;107849;1289;23988;-86
2024/01/18 04:32:21;;;;;;;7.10;4.70;;;;;;;8.16;99.72;93842.70;107918;1283;137276;-88
2024/01/18 04:36:03;;;;;;;4.90;2.40;;;;;;;8.04;100.00;93842.09;107934;1287;22566;-88
2024/01/18 04:39:46;;;;;;;3.50;2.40;;;;;;;7.93;100.00;93837.52;107886;1287;137656;-89
2024/01/18 04:43:14;;;;;;;3.50;2.40;;;;;;;7.85;100.00;93838.95;107843;1286;25900;-88
2024/01/18 04:46:41;;;;;;;3.30;2.40;;;;;;;7.74;100.00;93831.42;107602;1294;22586;-88
2024/01/18 04:50:18;;;;;;;;;;;;;;;;;;;;;
2024/01/18 04:54:03;;;;;;;;;;;;;;;;;;;;;
2024/01/18 04:57:49;;;;;;;2.10;1.30;;;;;;;7.55;100.00;93831.73;108057;1283;137812;-88
2024/01/18 05:01:38;;;;;;;;;;;;;;;;;;;;;
2024/01/18 05:05:08;;;;;;;1.90;1.10;;;;;;;7.48;100.00;93837.06;108182;1286;22542;-88
2024/01/18 05:08:40;;;;;;;4.30;1.80;;;;;;;7.50;100.00;93833.74;108061;1287;137691;-88
2024/01/18 05:15:52;;;;;;;1.60;0.80;;;;;;;7.57;100.00;93840.14;107785;1286;138553;-88
2024/01/18 05:19:28;;;;;;;1.00;0.70;;;;;;;7.61;100.00;93838.78;107729;1292;24206;-88
2024/01/18 05:23:04;;;;;;;0.80;0.60;;;;;;;7.60;100.00;93837.14;107871;1293;22582;-88
2024/01/18 05:26:31;;;;;;;0.80;0.60;;;;;;;7.66;100.00;93840.83;107633;1287;137882;-88
2024/01/18 05:30:07;;;;;;;2.00;0.70;;;;;;;7.72;100.00;93838.36;108172;1287;22615;-88
2024/01/18 05:33:23;;;;;;;2.80;1.30;;;;;;;7.81;100.00;93838.50;108212;1286;137674;-88
2024/01/18 05:37:00;;;;;;;1.40;0.80;;;;;;;7.83;100.00;93840.20;108173;1283;22581;-88
2024/01/18 05:40:33;;;;;;;13.90;5.10;;;;;;;7.94;100.00;93852.61;108185;1287;22490;-88
2024/01/18 05:44:16;;;;;;;2.40;0.90;;;;;;;8.00;100.00;93853.23;108090;1286;138041;-88
2024/01/18 05:47:52;;;;;;;0.50;0.40;;;;;;;8.05;100.00;93858.39;107712;1294;22581;-87
2024/01/18 05:51:20;;;;;;;3.70;1.50;;;;;;;8.09;100.00;93857.45;107614;1286;137845;-86
2024/01/18 05:58:31;;;;;;;2.90;1.10;;;;;;;8.07;100.00;93860.29;108227;1287;22577;-87
2024/01/18 06:01:56;;;;;;;4.00;1.40;;;;;;;8.08;100.00;93862.08;108166;1282;23700;-86
2024/01/18 06:05:29;;;;;;;;;;;;;;;;;;;;;
2024/01/18 06:09:17;;;;;;;;;;;;;;;;;;;;;
2024/01/18 06:12:59;;;;;;;0.90;0.70;;;;;;;8.06;100.00;93863.33;108245;1281;22586;-88
2024/01/18 06:16:35;;;;;;;3.60;1.10;;;;;;;8.03;100.00;93870.31;107960;1264;138336;-88
2024/01/18 06:20:08;;;;;;;1.50;1.10;;;;;;;8.01;100.00;93875.45;108333;1280;24208;-87
2024/01/18 06:23:46;;;;;;;3.80;1.60;;;;;;;8.00;100.00;93878.52;108185;1284;22612;-88
2024/01/18 06:27:38;;;;;;;;;;;;;;;;;;;;;
2024/01/18 06:31:22;;;;;;;;;;;;;;;;;;;;;
2024/01/18 06:34:49;;;;;;;1.10;0.80;;;;;;;7.98;100.00;93881.74;108142;1281;22558;-88
2024/01/18 06:38:07;;;;;;;;;;;;;;;;;;;;;
2024/01/18 06:45:22;;;;;;;3.30;1.40;;;;;;;7.94;100.00;93902.21;108028;1280;22492;-88
2024/01/18 06:49:07;;;;;;;1.50;0.90;;;;;;;7.90;100.00;93909.53;108196;1280;22581;-88
2024/01/18 06:52:44;;;;;;;5.60;2.50;;;;;;;7.90;100.00;93918.27;107857;1287;137734;-87
2024/01/18 06:56:20;;;;;;;20.40;5.40;;;;;;;7.86;100.00;93919.63;107912;1286;22696;-87
2024/01/18 07:03:41;;;;;;;;;;;;;;;;;;;;;
2024/01/18 07:07:13;;;;;;;5.30;1.80;;;;;;;7.82;100.00;93926.65;107789;1294;22597;-87
2024/01/18 07:10:42;;;;;;;5.30;3.20;;;;;;;7.81;100.00;93929.92;107672;1283;138396;-87
2024/01/18 07:14:21;;;;;;;7.20;2.60;;;;;;;7.72;100.00;93934.00;108232;1278;23170;-87
2024/01/18 07:17:49;;;;;;;6.60;2.60;;;;;;;7.71;100.00;93929.54;108190;1286;22664;-88
2024/01/18 07:21:22;;;;;;;3.10;1.40;;;;;;;7.68;100.00;93934.02;108276;1286;24228;-86
2024/01/18 07:24:30;;;;;;;;;;;;;;;7.68;100.00;93939.48;108135;1279;22630;-87
2024/01/18 07:28:11;;;;;;;;;;;;;;;;;;;;;
2024/01/18 07:31:53;;;;;;;;;;;;;;;;;;;;;
2024/01/18 07:35:33;;;;;;;;;;;;;;;;;;;;;
2024/01/18 07:39:20;;;;;;;3.80;1.60;;;;;;;7.59;100.00;93936.84;108032;1284;138284;-86
2024/01/18 07:42:48;;;;;;;4.10;1.70;;;;;;;7.54;100.00;93947.17;108248;1281;22597;-86
2024/01/18 07:46:17;;;;;;;4.50;2.20;;;;;;;7.54;100.00;93950.94;108035;1281;137848;-86
2024/01/18 07:49:46;;;;;;;1.80;1.00;;;;;;;7.55;100.00;93949.26;108143;1287;22581;-87
2024/01/18 07:53:18;;;;;;;8.90;4.70;;;;;;;7.54;100.00;93950.73;108070;1280;137755;-87
2024/01/18 07:56:44;;;;;;;3.50;1.70;;;;;;;7.55;100.00;93960.00;108270;1279;22534;-87
2024/01/18 08:00:12;;;;;;;3.70;1.40;;;;;;;7.53;100.00;93968.70;108171;1287;22616;-86
2024/01/18 08:03:50;;;;;;;12.80;5.60;;;;;;;7.48;100.00;93970.34;108012;1264;137970;-86
2024/01/18 08:07:18;;;;;;;6.70;3.60;;;;;;;7.47;100.00;93975.71;108168;1287;22548;-86
2024/01/18 08:10:57;;;;;;;11.70;3.70;;;;;;;7.45;100.00;93973.60;108055;1281;139439;-86
2024/01/18 08:14:30;;;;;;;20.10;11.50;;;;;;;7.45;100.00;93974.84;108121;1280;22563;-86
2024/01/18 08:17:58;;;;;;;7.60;2.80;;;;;;;7.44;100.00;93980.05;108187;1281;22716;-86
2024/01/18 08:21:34;;;;;;;5.10;2.10;;;;;;;7.44;100.00;93983.36;108025;1285;138072;-87
2024/01/18 08:25:04;;;;;;;7.70;3.20;;;;;;;7.47;100.00;93987.71;108264;1287;25499;-87
2024/01/18 08:28:32;;;;;;;20.30;10.00;;;;;;;7.50;100.00;93989.25;108139;1287;137771;-86
2024/01/18 08:32:03;;;;;;;4.30;1.60;;;;;;;7.53;100.00;93990.40;108151;1285;24025;-85
2024/01/18 08:35:31;;;;;;;3.40;1.30;;;;;;;7.54;100.00;93996.62;108114;1280;137755;-87
2024/01/18 08:38:59;;;;;;;13.50;5.40;;;;;;;7.55;100.00;93998.41;108165;1287;22560;-87
2024/01/18 08:42:27;;;;;;;17.70;9.00;;;;;;;7.60;100.00;93999.91;108128;1287;22575;-86
2024/01/18 08:45:54;;;;;;;3.20;1.90;;;;;;;7.60;100.00;94003.02;108085;1286;137938;-86
2024/01/18 08:49:48;;;;;;;44.60;31.70;;;;;;;7.57;100.00;94009.27;108147;1281;22564;-87
2024/01/18 08:52:54;;;;;;;72.90;54.20;;;;;;;7.61;100.00;94016.16;108054;1282;138129;-85
2024/01/18 08:56:30;;;;;;;14.60;10.90;;;;;;;7.63;100.00;94032.98;108269;1270;25445;-86
2024/01/18 08:59:58;;;;;;;8.70;6.80;;;;;;;7.53;100.00;94049.23;108307;1281;23908;-87
2024/01/18 09:03:26;;;;;;;11.90;9.20;;;;;;;7.40;100.00;94058.11;108217;1280;138191;-87
2024/01/18 09:06:53;;;;;;;17.50;14.20;;;;;;;7.24;100.00;94065.14;108208;1287;22585;-86
2024/01/18 09:10:22;;;;;;;30.10;22.10;;;;;;;7.09;100.00;94061.17;107935;1286;137871;-86
2024/01/18 09:13:56;;;;;;;20.40;14.70;;;;;;;7.02;100.00;94065.77;108218;1281;22552;-86
2024/01/18 09:17:25;;;;;;;20.80;15.40;;;;;;;6.87;100.00;94074.97;108003;1276;138789;-87
2024/01/18 09:21:08;;;;;;;;;;;;;;;;;;;;;
2024/01/18 09:24:37;;;;;;;19.80;15.50;;;;;;;6.59;100.00;94096.36;108117;1287;22561;-87
2024/01/18 09:28:05;;;;;;;17.30;14.10;;;;;;;6.46;100.00;94101.52;107952;1287;138257;-85
2024/01/18 09:31:31;;;;;;;23.90;20.40;;;;;;;6.36;100.00;94106.77;108129;1281;22550;-86
2024/01/18 09:34:58;;;;;;;28.20;19.40;;;;;;;6.28;100.00;94117.92;107981;1281;138211;-85
2024/01/18 09:38:29;;;;;;;23.10;18.70;;;;;;;6.24;100.00;94127.80;108058;1284;23373;-86
2024/01/18 09:41:51;;;;;;;;;;;;;;;;;;;;;
2024/01/18 09:45:44;;;;;;;19.60;16.10;;;;;;;5.85;100.00;94142.89;108137;1287;23405;-86
2024/01/18 09:48:53;;;;;;;23.30;18.60;;;;;;;5.77;100.00;94140.40;108004;1280;22595;-86
2024/01/18 09:52:20;;;;;;;30.70;22.50;;;;;;;5.73;100.00;94142.33;108082;1286;22577;-83
2024/01/18 09:55:48;;;;;;;21.70;17.80;;;;;;;5.70;100.00;94144.92;108084;1287;22577;-86
2024/01/18 09:59:16;;;;;;;35.00;24.00;;;;;;;5.65;100.00;94148.70;108019;1283;138593;-87
2024/01/18 10:02:43;;;;;;;117.10;69.00;;;;;;;5.62;100.00;94148.23;108143;1287;22586;-88
2024/01/18 10:05:55;;;;;;;27.40;20.00;;;;;;;5.50;100.00;94150.17;108149;1281;25512;-83
2024/01/18 10:09:22;;;;;;;24.70;19.30;;;;;;;5.39;100.00;94150.64;108142;1287;24350;-83
2024/01/18 10:12:50;;;;;;;27.00;21.20;;;;;;;5.27;100.00;94154.80;108205;1287;22576;-84
2024/01/18 10:16:29;;;;;;;28.70;20.70;;;;;;;5.06;100.00;94153.11;107965;1287;138410;-83
2024/01/18 10:19:50;;;;;;;;;;;;;;;;;;;;;
2024/01/18 10:23:18;;;;;;;31.80;22.30;;;;;;;4.79;100.00;94158.42;108069;1281;137941;-83
2024/01/18 10:26:47;;;;;;;30.20;21.30;;;;;;;4.73;100.00;94157.61;108139;1284;22753;-85
2024/01/18 10:30:17;;;;;;;33.40;24.10;;;;;;;4.70;100.00;94158.58;108263;1284;22537;-84
2024/01/18 10:33:44;;;;;;;33.40;23.20;;;;;;;4.61;100.00;94159.35;108158;1280;22625;-86
2024/01/18 10:37:21;;;;;;;;;;;;;;;;;;;;;
2024/01/18 10:40:51;;;;;;;39.50;28.60;;;;;;;4.47;100.00;94133.20;108099;1286;23984;-84
2024/01/18 10:47:39;;;;;;;34.80;23.00;;;;;;;4.51;100.00;94147.11;108131;1286;24241;-86
2024/01/18 10:51:14;;;;;;;35.60;23.50;;;;;;;4.48;100.00;94148.52;108197;1280;24244;-86
2024/01/18 10:54:43;;;;;;;32.60;21.90;;;;;;;4.43;100.00;94149.90;108193;1280;22562;-84
2024/01/18 10:58:17;;;;;;;33.90;23.50;;;;;;;4.44;100.00;94145.86;108244;1280;24390;-86
2024/01/18 11:01:44;;;;;;;32.00;24.00;;;;;;;4.46;100.00;94150.92;108168;1284;22617;-86
2024/01/18 11:05:12;;;;;;;34.40;23.70;;;;;;;4.51;100.00;94150.36;108132;1281;138058;-86
2024/01/18 11:08:39;;;;;;;38.10;24.60;;;;;;;4.57;100.00;94150.70;108294;1280;22966;-87
2024/01/18 11:12:20;;;;;;;33.50;23.40;;;;;;;4.57;100.00;94148.28;108178;1286;138038;-87
2024/01/18 11:15:52;;;;;;;33.20;21.70;;;;;;;4.59;100.00;94156.59;108169;1286;22679;-88
2024/01/18 11:19:16;;;;;;;38.90;24.50;;;;;;;4.50;100.00;94153.45;108284;1280;22630;-87
2024/01/18 11:22:53;;;;;;;39.00;26.60;;;;;;;4.40;100.00;94145.08;108097;1278;138110;-88
2024/01/18 11:26:26;;;;;;;45.60;28.90;;;;;;;4.47;100.00;94151.13;108363;1281;22588;-87
2024/01/18 11:29:32;;;;;;;;;;;;;;;4.43;100.00;94145.04;108021;1286;137958;-87
2024/01/18 11:33:11;;;;;;;38.90;25.90;;;;;;;4.39;100.00;94137.88;108303;1280;22546;-87
2024/01/18 11:36:48;;;;;;;46.00;28.00;;;;;;;4.38;100.00;94131.84;108206;1282;22538;-86
2024/01/18 11:40:34;;;;;;;43.30;26.30;;;;;;;4.36;100.00;94131.93;108060;1287;138107;-88
2024/01/18 11:44:10;;;;;;;39.10;25.50;;;;;;;4.29;100.00;94126.71;107804;1290;22554;-88
2024/01/18 11:47:39;;;;;;;34.90;22.40;;;;;;;4.17;100.00;94117.57;107525;1285;138114;-88
2024/01/18 11:51:06;;;;;;;43.80;27.40;;;;;;;4.16;100.00;94114.09;108031;1287;22544;-87
2024/01/18 11:54:34;;;;;;;38.80;25.70;;;;;;;4.22;100.00;94111.09;108489;1286;138785;-86
2024/01/18 11:58:01;;;;;;;38.20;25.50;;;;;;;4.28;100.00;94111.27;108471;1287;22599;-87
2024/01/18 12:05:12;;;;;;;45.60;27.80;;;;;;;4.24;100.00;94110.42;108445;1283;138219;-86
2024/01/18 12:08:58;;;;;;;45.30;28.00;;;;;;;4.29;100.00;94114.86;108351;1290;22596;-87
2024/01/18 12:12:32;;;;;;;50.90;28.60;;;;;;;4.29;100.00;94119.17;107269;1295;138160;-87
2024/01/18 12:15:59;;;;;;;49.20;31.00;;;;;;;4.29;100.00;94118.53;107437;1289;22661;-87
2024/01/18 12:19:45;;;;;;;;;;;;;;;;;;;;;
2024/01/18 12:23:24;;;;;;;45.20;26.00;;;;;;;4.33;100.00;94119.75;108369;1281;138313;-87
2024/01/18 12:27:04;;;;;;;40.00;24.00;;;;;;;4.37;100.00;94115.59;108025;1289;22567;-86
2024/01/18 12:30:43;;;;;;;;;;;;;;;;;;;;;
2024/01/18 12:34:29;;;;;;;36.10;21.00;;;;;;;4.40;100.00;94109.35;107977;1287;22534;-87
2024/01/18 12:38:00;;;;;;;;;;;;;;;;;;;;;
2024/01/18 12:41:30;;;;;;;39.80;23.50;;;;;;;4.25;100.00;94115.92;108631;1286;22583;-86
2024/01/18 12:44:58;;;;;;;43.90;26.60;;;;;;;4.13;100.00;94117.86;108435;1287;22645;-86
2024/01/18 12:48:27;;;;;;;43.80;26.30;;;;;;;4.13;100.00;94128.54;108417;1281;137982;-86
2024/01/18 12:51:53;;;;;;;55.50;32.00;;;;;;;4.16;100.00;94129.77;108383;1287;22691;-86
2024/01/18 12:55:30;;;;;;;;;;;;;;;;;;;;;
2024/01/18 12:58:52;;;;;;;66.20;39.40;;;;;;;3.95;100.00;94136.19;108300;1281;138228;-86
2024/01/18 13:02:25;;;;;;;75.40;44.10;;;;;;;3.95;100.00;94137.69;108420;1287;22568;-86
2024/01/18 13:05:57;;;;;;;64.50;37.40;;;;;;;3.91;100.00;94139.98;108386;1284;137951;-86
2024/01/18 13:09:23;;;;;;;69.70;39.50;;;;;;;3.87;100.00;94136.23;108490;1281;22569;-87
2024/01/18 13:12:51;;;;;;;73.90;43.50;;;;;;;3.79;100.00;94129.95;108359;1286;138124;-87
2024/01/18 13:16:23;;;;;;;69.00;39.60;;;;;;;3.69;100.00;94130.59;108495;1281;22293;-87
2024/01/18 13:19:45;;;;;;;;;;;;;;;;;;;;;
2024/01/18 13:23:16;;;;;;;63.80;36.40;;;;;;;3.79;100.00;94131.88;108373;1282;138170;-86
2024/01/18 13:26:44;;;;;;;68.80;38.20;;;;;;;3.76;100.00;94138.00;108462;1287;22545;-86
2024/01/18 13:30:10;;;;;;;69.10;38.30;;;;;;;3.74;100.00;94137.88;108283;1281;138832;-86
2024/01/18 13:33:38;;;;;;;67.90;38.40;;;;;;;3.74;100.00;94142.16;108354;1286;25915;-87
2024/01/18 13:37:06;;;;;;;68.60;38.50;;;;;;;3.73;100.00;94143.60;108244;1283;138890;-86
2024/01/18 13:40:34;;;;;;;81.50;44.30;;;;;;;3.66;100.00;94144.88;104392;1287;5400129;-87
2024/01/18 13:44:03;;;;;;;84.00;47.10;;;;;;;3.64;100.00;94153.86;108460;1286;22645;-86
2024/01/18 13:47:30;;;;;;;81.10;44.80;;;;;;;3.59;100.00;94153.60;108181;1285;138606;-86
2024/01/18 13:50:52;;;;;;;78.90;41.00;;;;;;;3.56;100.00;94147.45;107957;1282;22575;-86
2024/01/18 13:54:08;;;;;;;73.20;41.40;;;;;;;3.58;100.00;94150.17;108151;1287;138701;-86
2024/01/18 13:57:37;;;;;;;57.40;31.30;;;;;;;3.57;100.00;94147.54;108194;1287;22572;-87
2024/01/18 14:01:07;;;;;;;64.30;34.80;;;;;;;3.58;100.00;94143.16;108239;1286;138918;-86
2024/01/18 14:04:22;;;;;;;57.30;33.00;;;;;;;3.52;100.00;94145.59;108305;1282;22544;-86
2024/01/18 14:07:50;;;;;;;59.50;32.30;;;;;;;3.47;100.00;94145.19;108341;1283;22577;-86
2024/01/18 14:10:54;;;;;;;;;;;;;;;;;;;;;
2024/01/18 14:14:24;;;;;;;61.10;32.80;;;;;;;3.48;100.00;94160.98;108279;1283;23979;-86
2024/01/18 14:17:51;;;;;;;65.70;35.00;;;;;;;3.47;100.00;94160.94;108329;1283;138736;-88
2024/01/18 14:21:19;;;;;;;62.60;33.00;;;;;;;3.37;100.00;94162.95;108484;1282;22603;-89
2024/01/18 14:24:33;;;;;;;;;;;;;;;;;;;;;
2024/01/18 14:28:02;;;;;;;67.50;34.80;;;;;;;3.37;100.00;94157.46;108416;1287;24321;-88
2024/01/18 14:31:31;;;;;;;65.60;35.20;;;;;;;3.37;100.00;94156.67;108498;1287;22564;-88
2024/01/18 14:35:01;;;;;;;61.30;36.10;;;;;;;3.36;100.00;94154.34;108533;1283;22547;-87
2024/01/18 14:38:30;;;;;;;59.60;33.40;;;;;;;3.33;100.00;94151.45;108676;1281;24768;-89
2024/01/18 14:42:01;;;;;;;71.00;38.60;;;;;;;3.28;100.00;94157.64;108520;1283;24261;-89
2024/01/18 14:45:30;;;;;;;67.80;37.10;;;;;;;3.30;100.00;94152.27;108320;1282;22579;-87
2024/01/18 14:49:00;;;;;;;;;;;;;;;;;;;;;
2024/01/18 14:52:36;;;;;;;64.90;38.90;;;;;;;3.27;100.00;94160.91;108583;1286;25347;-87
2024/01/18 14:56:03;;;;;;;68.90;38.30;;;;;;;3.21;100.00;94172.59;108628;1282;25444;-86
2024/01/18 14:59:31;;;;;;;64.30;37.30;;;;;;;3.21;100.00;94186.96;108461;1283;138184;-87
2024/01/18 15:02:58;;;;;;;67.20;37.40;;;;;;;3.16;100.00;94179.77;108555;1286;22492;-89
2024/01/18 15:06:25;;;;;;;66.90;37.50;;;;;;;3.20;100.00;94170.85;108601;1280;138118;-89
2024/01/18 15:09:46;;;;;;;61.90;35.00;;;;;;;3.23;100.00;94167.31;108610;1286;22609;-89
2024/01/18 15:13:14;;;;;;;60.10;35.90;;;;;;;3.24;100.00;94156.15;108603;1283;138861;-89
2024/01/18 15:16:41;;;;;;;61.90;34.60;;;;;;;3.15;100.00;94164.16;108675;1287;22511;-88
2024/01/18 15:20:09;;;;;;;57.60;34.20;;;;;;;3.06;100.00;94173.50;108665;1286;24351;-88
2024/01/18 15:23:36;;;;;;;49.10;28.90;;;;;;;3.01;100.00;94168.43;108505;1286;138120;-88
2024/01/18 15:27:04;;;;;;;52.50;29.80;;;;;;;3.01;100.00;94161.55;108606;1287;22567;-88
2024/01/18 15:30:31;;;;;;;54.50;31.90;;;;;;;3.04;100.00;94165.16;108568;1286;138090;-89
2024/01/18 15:34:04;;;;;;;51.60;28.30;;;;;;;3.02;100.00;94179.72;108599;1282;23259;-89
2024/01/18 15:37:11;;;;;;;;;;;;;;;2.97;100.00;94197.46;108343;1282;138214;-89
2024/01/18 15:40:40;;;;;;;48.50;26.80;;;;;;;2.91;100.00;94213.42;108668;1286;22840;-89
2024/01/18 15:44:07;;;;;;;50.70;27.50;;;;;;;2.89;100.00;94229.48;108568;1286;24332;-87
2024/01/18 15:47:41;;;;;;;67.20;38.00;;;;;;;2.87;100.00;94230.98;108549;1287;138601;-89
2024/01/18 15:51:02;;;;;;;67.90;39.30;;;;;;;2.85;100.00;94233.48;108619;1286;22521;-89
2024/01/18 15:54:29;;;;;;;70.60;42.30;;;;;;;2.86;100.00;94221.41;108481;1279;138494;-89
2024/01/18 15:57:57;;;;;;;56.70;36.90;;;;;;;2.87;100.00;94227.89;108648;1279;23034;-89
2024/01/18 16:01:24;;;;;;;60.10;34.20;;;;;;;2.84;100.00;94235.17;108441;1286;138726;-88
2024/01/18 16:04:51;;;;;;;53.00;32.60;;;;;;;2.83;100.00;94240.18;108523;1280;22611;-88
2024/01/18 16:08:19;;;;;;;58.10;36.10;;;;;;;2.74;100.00;94240.30;108593;1286;22623;-88
2024/01/18 16:11:46;;;;;;;60.50;38.30;;;;;;;2.63;100.00;94234.91;108512;1283;22649;-87
2024/01/18 16:15:06;;;;;;;60.40;35.70;;;;;;;2.59;100.00;94241.31;108437;1286;22539;-87
2024/01/18 16:18:26;;;;;;;70.20;40.00;;;;;;;2.54;100.00;94245.30;108019;1278;138417;-86
2024/01/18 16:21:54;;;;;;;63.70;38.70;;;;;;;2.50;100.00;94244.56;108312;1280;22591;-85
2024/01/18 16:25:21;;;;;;;71.70;42.70;;;;;;;2.40;100.00;94254.84;108047;1287;138094;-86
2024/01/18 16:28:32;;;;;;;;;;;;;;;;;;;;;
2024/01/18 16:32:01;;;;;;;60.00;36.90;;;;;;;2.32;100.00;94271.27;108094;1281;138655;-86
2024/01/18 16:35:52;;;;;;;52.50;30.00;;;;;;;2.20;100.00;94275.18;108543;1277;25253;-86
2024/01/18 16:38:48;;;;;;;;;;;;;;;;;;;;;
2024/01/18 16:42:19;;;;;;;46.90;28.60;;;;;;;2.09;100.00;94287.55;108316;1278;138200;-88
2024/01/18 16:45:46;;;;;;;39.10;24.30;;;;;;;2.06;100.00;94300.15;108632;1284;25277;-88
2024/01/18 16:49:09;;;;;;;;;;;;;;;;;;;;;
2024/01/18 16:52:44;;;;;;;38.10;24.20;;;;;;;1.97;100.00;94325.64;108427;1283;22543;-88
2024/01/18 16:56:18;;;;;;;35.40;22.20;;;;;;;1.92;100.00;94330.08;108511;1284;22606;-86
2024/01/18 16:59:39;;;;;;;32.80;22.50;;;;;;;1.82;100.00;94343.33;108549;1277;22540;-88
2024/01/18 17:03:25;;;;;;;;;;;;;;;;;;;;;
2024/01/18 17:07:10;;;;;;;30.50;20.80;;;;;;;1.72;100.00;94370.24;108243;1284;138232;-88
2024/01/18 17:10:24;;;;;;;26.30;18.50;;;;;;;1.66;100.00;94375.05;108514;1284;25434;-88
2024/01/18 17:14:00;;;;;;;28.00;17.70;;;;;;;1.54;100.00;94389.09;108432;1284;138572;-88
2024/01/18 17:17:58;;;;;;;27.70;18.10;;;;;;;1.41;100.00;94399.73;108361;1285;22619;-87
2024/01/18 17:21:16;;;;;;;28.70;17.90;;;;;;;1.40;100.00;94408.21;108607;1283;22588;-89
2024/01/18 17:24:44;;;;;;;33.50;21.10;;;;;;;1.40;100.00;94413.61;108475;1277;138308;-86
2024/01/18 17:27:54;;;;;;;28.90;18.80;;;;;;;1.32;100.00;94421.75;108745;1283;23309;-88
2024/01/18 17:31:22;;;;;;;24.30;18.10;;;;;;;1.23;100.00;94424.29;108772;1278;138249;-87
2024/01/18 17:34:49;;;;;;;22.30;16.10;;;;;;;1.16;100.00;94438.67;108523;1285;22655;-86
2024/01/18 17:38:09;;;;;;;23.40;15.70;;;;;;;1.14;100.00;94446.58;108413;1277;137881;-86
2024/01/18 17:41:40;;;;;;;19.50;14.10;;;;;;;1.10;100.00;94453.38;108791;1276;22580;-86
2024/01/18 17:45:09;;;;;;;;;;;;;;;;;;;;;
2024/01/18 17:48:31;;;;;;;;;;;;;;;;;;;;;
2024/01/18 17:51:45;;;;;;;18.50;12.40;;;;;;;1.08;100.00;94492.30;108593;1276;22713;-86